« Back
NWS Peachtree City, Ga » Text Product » MCN Terminal Aerodrome Forecast


Printer-friendly Version
Current Version              Previous Versions:   1  2  3  4  5  6  7  8  9  

Terminal Aerodrome Forecast

929
FTUS42 KFFC 202331
TAFMCN
TAF
KMCN 202331Z 2100/2124 24010G18KT P6SM SCT050
     FM210400 28008KT P6SM SCT060
     FM210800 31009KT P6SM FEW070
     FM211500 32009G18KT P6SM FEW040
     FM212000 29007KT P6SM FEW050=

USA.gov is the U.S. government's official web portal to all federal, state and local government web resources and services.